createdAt,value
2019-05-02T00:02:10.541Z,60.30
2019-05-02T00:04:40.941Z,59.55
2019-05-02T00:07:14.464Z,55.25
2019-05-02T00:09:48.598Z,57.88
2019-05-02T00:12:18.538Z,57.35
2019-05-02T00:14:49.238Z,58.80
2019-05-02T00:17:25.591Z,54.67
2019-05-02T00:19:53.079Z,59.00
2019-05-02T00:22:23.504Z,55.40
2019-05-02T00:24:53.950Z,52.35
2019-05-02T00:27:24.305Z,55.65
2019-05-02T00:29:58.837Z,58.10
2019-05-02T00:32:26.663Z,57.48
2019-05-02T00:34:57.185Z,55.17
2019-05-02T00:37:27.568Z,56.28
2019-05-02T00:39:57.893Z,56.95
2019-05-02T00:42:28.243Z,56.25
2019-05-02T00:44:58.549Z,48.87
2019-05-02T00:47:42.181Z,47.17
2019-05-02T00:50:13.318Z,45.00
2019-05-02T00:52:43.749Z,52.15
2019-05-02T00:55:14.768Z,49.85
2019-05-02T00:57:45.090Z,54.35
2019-05-02T01:00:18.358Z,54.03
2019-05-02T01:03:01.923Z,55.75
2019-05-02T01:05:33.694Z,49.70
2019-05-02T01:08:04.490Z,48.92
2019-05-02T01:10:34.872Z,51.88
2019-05-02T01:13:05.210Z,47.30
2019-05-02T01:15:39.186Z,44.85
2019-05-02T01:18:07.966Z,47.88
2019-05-02T01:20:38.404Z,47.98
2019-05-02T01:23:08.783Z,41.98
2019-05-02T01:25:39.178Z,44.03
2019-05-02T01:28:21.538Z,48.33
2019-05-02T01:31:18.478Z,46.05
2019-05-02T01:33:54.152Z,46.80
2019-05-02T01:36:29.985Z,49.27
2019-05-02T01:39:03.015Z,52.67
2019-05-02T01:41:32.340Z,53.70
2019-05-02T01:44:02.747Z,50.92
2019-05-02T01:46:33.058Z,49.85
2019-05-02T01:49:03.441Z,52.30
2019-05-02T01:51:36.620Z,51.73
2019-05-02T01:54:10.142Z,48.63
2019-05-02T01:56:38.033Z,53.78
2019-05-02T01:59:08.351Z,53.78
2019-05-02T02:01:38.702Z,54.45
2019-05-02T02:04:09.051Z,56.73
2019-05-02T02:06:43.276Z,53.42
2019-05-02T02:09:11.514Z,50.30
2019-05-02T02:11:41.913Z,32.90
2019-05-02T02:14:13.627Z,44.00
2019-05-02T02:16:44.281Z,41.55
2019-05-02T02:19:20.283Z,54.00
2019-05-02T02:22:02.943Z,42.73
2019-05-02T02:24:38.462Z,40.78
2019-05-02T02:27:09.152Z,47.08
2019-05-02T02:29:44.063Z,45.35
2019-05-02T02:32:11.621Z,47.03
2019-05-02T02:34:41.909Z,37.13
2019-05-02T02:37:15.065Z,46.55
2019-05-02T02:39:48.586Z,31.17
2019-05-02T02:42:16.362Z,38.85
2019-05-02T02:44:53.193Z,35.13
2019-05-02T02:47:23.672Z,42.65
2019-05-02T02:49:55.699Z,45.28
2019-05-02T02:52:26.066Z,35.88
2019-05-02T02:54:56.383Z,39.55
2019-05-02T02:57:28.501Z,38.90
2019-05-02T03:00:06.861Z,27.45
2019-05-02T03:02:31.462Z,40.38
2019-05-02T03:05:01.886Z,55.50
2019-05-02T03:07:32.323Z,59.53
2019-05-02T03:10:06.083Z,44.75
2019-05-02T03:12:52.758Z,37.50
2019-05-02T03:15:28.077Z,38.55
2019-05-02T03:18:00.067Z,42.03
2019-05-02T03:20:40.143Z,42.08
2019-05-02T03:23:00.990Z,47.62
2019-05-02T03:25:50.113Z,54.33
2019-05-02T03:28:04.010Z,63.13
2019-05-02T03:30:37.454Z,60.30
2019-05-02T03:33:11.515Z,55.80
2019-05-02T03:35:48.024Z,30.80
2019-05-02T03:38:10.626Z,37.50
2019-05-02T03:40:41.378Z,36.53
2019-05-02T03:43:11.781Z,41.00
2019-05-02T03:45:43.260Z,46.70
2019-05-02T03:48:18.373Z,42.15
2019-05-02T03:50:46.241Z,45.00
2019-05-02T03:53:17.778Z,47.70
2019-05-02T03:55:49.213Z,46.53
2019-05-02T03:58:19.911Z,51.23
2019-05-02T04:01:00.915Z,45.55
2019-05-02T04:03:23.029Z,43.13
2019-05-02T04:05:54.070Z,43.30
2019-05-02T04:08:25.120Z,44.13
2019-05-02T04:11:25.532Z,49.08
2019-05-02T04:13:59.698Z,55.08
2019-05-02T04:16:31.527Z,57.58
2019-05-02T04:19:03.689Z,60.70
2019-05-02T04:21:35.415Z,59.20
2019-05-02T04:24:13.454Z,60.23
2019-05-02T04:26:52.684Z,60.83
2019-05-02T04:29:12.295Z,60.40
2019-05-02T04:31:42.663Z,61.95
2019-05-02T04:34:15.808Z,60.25
2019-05-02T04:36:46.520Z,62.53
2019-05-02T04:39:21.190Z,60.92
2019-05-02T04:41:49.301Z,64.22
2019-05-02T04:44:19.770Z,62.53
2019-05-02T04:46:50.121Z,62.98
2019-05-02T04:49:29.731Z,63.85
2019-05-02T04:52:01.546Z,61.80
2019-05-02T04:54:29.083Z,63.33
2019-05-02T04:56:59.013Z,59.18
2019-05-02T04:59:32.968Z,62.13
2019-05-02T05:02:02.916Z,64.45
2019-05-02T05:04:42.460Z,59.98
2019-05-02T05:07:09.272Z,63.42
2019-05-02T05:09:50.031Z,65.80
2019-05-02T05:12:17.636Z,62.80
2019-05-02T05:14:48.316Z,65.22
2019-05-02T05:17:19.988Z,61.37
2019-05-02T05:19:51.987Z,63.25
2019-05-02T05:22:22.713Z,64.82
2019-05-02T05:24:59.939Z,69.92
2019-05-02T05:27:31.198Z,67.70
2019-05-02T05:30:08.381Z,71.75
2019-05-02T05:32:33.816Z,66.37
2019-05-02T05:35:08.961Z,72.03
2019-05-02T05:37:38.212Z,69.40
2019-05-02T05:40:08.859Z,72.27
2019-05-02T05:42:39.226Z,73.55
2019-05-02T05:45:13.758Z,78.02
2019-05-02T05:47:43.099Z,75.65
2019-05-02T05:50:14.247Z,76.77
2019-05-02T05:52:44.668Z,80.90
2019-05-02T05:55:20.519Z,75.97
2019-05-02T05:57:49.749Z,85.22
2019-05-02T06:00:23.026Z,76.87
2019-05-02T06:02:56.364Z,77.97
2019-05-02T06:05:23.654Z,81.78
2019-05-02T06:07:54.054Z,72.85
2019-05-02T06:10:24.407Z,80.90
2019-05-02T06:12:54.803Z,78.90
2019-05-02T06:15:25.120Z,79.65
2019-05-02T06:17:55.485Z,74.00
2019-05-02T06:20:30.535Z,73.17
2019-05-02T06:23:00.100Z,73.70
2019-05-02T06:25:34.262Z,68.55
2019-05-02T06:28:05.662Z,58.17
2019-05-02T06:30:34.226Z,62.85
2019-05-02T06:33:04.624Z,59.03
2019-05-02T06:35:35.572Z,58.55
2019-05-02T06:38:06.027Z,60.63
2019-05-02T06:40:39.282Z,56.73
2019-05-02T06:43:09.699Z,60.78
2019-05-02T06:45:40.549Z,63.65
2019-05-02T06:48:17.214Z,66.87
2019-05-02T06:50:42.964Z,65.03
2019-05-02T06:53:13.320Z,66.62
2019-05-02T06:55:43.677Z,73.60
2019-05-02T06:58:14.049Z,68.17
2019-05-02T07:00:56.646Z,74.07
2019-05-02T07:03:16.954Z,73.33
2019-05-02T07:05:49.032Z,66.60
2019-05-02T07:08:19.589Z,69.20
2019-05-02T07:10:49.998Z,71.35
2019-05-02T07:13:20.392Z,74.50
2019-05-02T07:16:24.028Z,71.77
2019-05-02T07:18:50.971Z,73.85
2019-05-02T07:21:23.613Z,70.45
2019-05-02T07:23:55.055Z,71.42
2019-05-02T07:26:25.775Z,75.15
2019-05-02T07:28:56.157Z,76.60
2019-05-02T07:31:26.469Z,73.75
2019-05-02T07:33:56.833Z,75.83
2019-05-02T07:36:31.206Z,78.57
2019-05-02T07:39:05.204Z,73.33
2019-05-02T07:41:31.340Z,74.82
2019-05-02T07:44:04.424Z,77.32
2019-05-02T07:46:34.138Z,67.87
2019-05-02T07:49:04.672Z,73.65
2019-05-02T07:51:35.019Z,76.97
2019-05-02T07:54:05.365Z,77.65
2019-05-02T07:56:35.739Z,71.42
2019-05-02T07:59:06.088Z,75.67
2019-05-02T08:01:36.428Z,79.12
2019-05-02T08:04:11.145Z,78.57
2019-05-02T08:06:40.122Z,71.30
2019-05-02T08:09:11.761Z,70.20
2019-05-02T08:11:42.124Z,83.65
2019-05-02T08:14:12.460Z,77.75
2019-05-02T08:16:42.881Z,73.25
2019-05-02T08:19:13.219Z,78.02
2019-05-02T08:21:43.632Z,82.30
2019-05-02T08:24:14.036Z,84.62
2019-05-02T08:27:03.305Z,72.55
2019-05-02T08:29:34.411Z,78.07
2019-05-02T08:32:04.736Z,81.87
2019-05-02T08:34:35.128Z,73.62
2019-05-02T08:37:05.621Z,79.20
2019-05-02T08:39:35.979Z,81.00
2019-05-02T08:42:06.800Z,84.50
2019-05-02T08:44:50.375Z,80.60
2019-05-02T08:47:18.630Z,78.85
2019-05-02T08:49:42.570Z,82.05
2019-05-02T08:52:13.166Z,75.83
2019-05-02T08:54:43.502Z,81.05
2019-05-02T08:57:13.868Z,80.10
2019-05-02T08:59:44.281Z,74.55
2019-05-02T09:02:14.693Z,82.40
2019-05-02T09:04:57.643Z,75.37
2019-05-02T09:07:17.264Z,81.22
2019-05-02T09:09:47.780Z,78.30
2019-05-02T09:12:20.058Z,75.32
2019-05-02T09:14:51.972Z,72.50
2019-05-02T09:17:35.094Z,71.33
2019-05-02T09:20:02.382Z,80.32
2019-05-02T09:22:26.410Z,84.35
2019-05-02T09:24:56.746Z,72.58
2019-05-02T09:27:27.165Z,81.37
2019-05-02T09:29:57.494Z,75.08
2019-05-02T09:32:27.823Z,76.42
2019-05-02T09:35:02.257Z,78.10
2019-05-02T09:37:32.138Z,64.92
2019-05-02T09:40:06.819Z,65.87
2019-05-02T09:42:35.017Z,69.55
2019-05-02T09:45:06.080Z,72.08
2019-05-02T09:47:52.894Z,71.07
2019-05-02T09:50:15.719Z,73.30
2019-05-02T09:52:47.124Z,72.22
2019-05-02T09:55:19.009Z,78.78
2019-05-02T09:57:49.360Z,82.53
2019-05-02T10:00:43.725Z,78.33
2019-05-02T10:03:14.486Z,80.90
2019-05-02T10:05:44.827Z,72.72
2019-05-02T10:08:15.253Z,64.85
2019-05-02T10:10:46.232Z,63.90
2019-05-02T10:13:16.918Z,67.45
2019-05-02T10:15:47.859Z,70.05
2019-05-02T10:18:19.689Z,74.12
2019-05-02T10:20:52.256Z,77.50
2019-05-02T10:23:23.442Z,74.03
2019-05-02T10:25:54.312Z,74.10
2019-05-02T10:28:24.769Z,76.55
2019-05-02T10:30:56.826Z,71.40
2019-05-02T10:33:27.927Z,77.80
2019-05-02T10:35:59.288Z,66.35
2019-05-02T10:38:29.593Z,69.97
2019-05-02T10:41:02.623Z,70.80
2019-05-02T10:43:32.892Z,63.87
2019-05-02T10:46:09.587Z,66.67
2019-05-02T10:48:45.471Z,62.53
2019-05-02T10:51:41.947Z,61.40
2019-05-02T10:54:08.964Z,55.88
2019-05-02T10:56:39.295Z,55.70
2019-05-02T10:59:11.644Z,57.75
2019-05-02T11:02:02.529Z,55.05
2019-05-02T11:04:35.023Z,53.13
2019-05-02T11:07:05.488Z,50.50
2019-05-02T11:09:35.868Z,55.70
2019-05-02T11:12:07.825Z,63.40
2019-05-02T11:14:59.886Z,62.60
2019-05-02T11:17:37.607Z,64.65
2019-05-02T11:20:12.188Z,58.87
2019-05-02T11:22:42.827Z,57.93
2019-05-02T11:25:13.193Z,55.70
2019-05-02T11:27:43.560Z,48.80
2019-05-02T11:30:16.869Z,45.33
2019-05-02T11:32:46.261Z,39.80
2019-05-02T11:35:16.595Z,35.55
2019-05-02T11:37:46.917Z,34.40
2019-05-02T11:40:17.242Z,27.55
2019-05-02T11:42:47.865Z,22.77
2019-05-02T11:45:18.197Z,19.02
2019-05-02T11:47:48.509Z,21.12
2019-05-02T11:50:18.895Z,20.55
2019-05-02T11:52:49.210Z,21.52
2019-05-02T11:55:24.589Z,20.02
2019-05-02T11:57:52.397Z,21.65
2019-05-02T12:00:22.716Z,24.12
2019-05-02T12:03:28.273Z,23.10
2019-05-02T12:05:59.383Z,25.85
2019-05-02T12:08:31.807Z,24.85
2019-05-02T12:11:03.760Z,26.55
2019-05-02T12:13:33.874Z,28.77
2019-05-02T12:16:08.585Z,27.10
2019-05-02T12:18:38.359Z,22.70
2019-05-02T12:21:08.843Z,27.37
2019-05-02T12:23:39.225Z,23.42
2019-05-02T12:26:09.630Z,23.05
2019-05-02T12:28:40.038Z,26.27
2019-05-02T12:31:32.111Z,23.38
2019-05-02T12:34:04.267Z,21.87
2019-05-02T12:36:34.637Z,24.27
2019-05-02T12:39:06.627Z,24.00
2019-05-02T12:41:37.052Z,25.65
2019-05-02T12:44:07.533Z,26.52
2019-05-02T12:46:37.880Z,28.62
2019-05-02T12:49:08.197Z,27.77
2019-05-02T12:51:38.557Z,28.15
2019-05-02T12:54:08.902Z,29.77
2019-05-02T12:56:39.254Z,30.75
2019-05-02T12:59:11.689Z,34.92
2019-05-02T13:01:42.253Z,46.83
2019-05-02T13:04:14.242Z,42.73
2019-05-02T13:06:44.755Z,43.02
2019-05-02T13:09:15.338Z,40.55
2019-05-02T13:12:05.694Z,44.55
2019-05-02T13:14:36.006Z,44.67
2019-05-02T13:17:06.443Z,46.28
2019-05-02T13:19:40.909Z,45.67
2019-05-02T13:22:24.518Z,47.43
2019-05-02T13:24:57.926Z,47.30
2019-05-02T13:27:32.202Z,45.52
2019-05-02T13:30:03.223Z,51.23
2019-05-02T13:32:42.674Z,45.20
2019-05-02T13:35:26.931Z,50.17
2019-05-02T13:38:02.725Z,47.15
2019-05-02T13:40:41.671Z,47.27
2019-05-02T13:43:12.533Z,42.98
2019-05-02T13:46:05.458Z,42.35
2019-05-02T13:48:35.898Z,46.53
2019-05-02T13:51:06.331Z,46.13
2019-05-02T13:53:38.714Z,46.23
2019-05-02T13:56:46.319Z,47.93
2019-05-02T13:59:17.151Z,46.37
2019-05-02T14:01:49.404Z,45.75
2019-05-02T14:04:19.799Z,44.05
2019-05-02T14:06:50.128Z,43.28
2019-05-02T14:09:32.499Z,41.30
2019-05-02T14:12:22.870Z,42.23
2019-05-02T14:14:53.262Z,41.20
2019-05-02T14:17:23.759Z,40.60
2019-05-02T14:20:07.118Z,41.02
2019-05-02T14:22:26.177Z,40.73
2019-05-02T14:24:56.498Z,42.10
2019-05-02T14:27:26.835Z,37.35
2019-05-02T14:29:57.213Z,36.55
2019-05-02T14:32:27.559Z,35.28
2019-05-02T14:35:03.947Z,35.35
2019-05-02T14:37:34.290Z,33.02
2019-05-02T14:40:12.152Z,39.05
2019-05-02T14:42:42.528Z,37.23
2019-05-02T14:45:27.230Z,39.67
2019-05-02T14:47:44.926Z,33.28
2019-05-02T14:50:24.325Z,32.93
2019-05-02T14:52:47.784Z,35.35
2019-05-02T14:55:24.018Z,30.97
2019-05-02T14:57:52.489Z,31.97
2019-05-02T15:00:24.139Z,31.20
2019-05-02T15:02:54.467Z,29.00
2019-05-02T15:05:29.545Z,28.10
2019-05-02T15:08:01.538Z,26.70
2019-05-02T15:10:29.218Z,26.95
2019-05-02T15:13:01.141Z,29.07
2019-05-02T15:15:33.627Z,27.75
2019-05-02T15:18:07.919Z,23.32
2019-05-02T15:20:39.345Z,29.98
2019-05-02T15:23:14.338Z,28.42
2019-05-02T15:25:42.263Z,31.60
2019-05-02T15:28:19.410Z,31.30
2019-05-02T15:31:05.047Z,29.72
2019-05-02T15:33:39.640Z,28.57
2019-05-02T15:36:11.841Z,31.95
2019-05-02T15:38:47.342Z,33.45
2019-05-02T15:41:15.468Z,31.30
2019-05-02T15:43:49.244Z,33.92
2019-05-02T15:46:23.689Z,32.08
2019-05-02T15:48:51.971Z,30.35
2019-05-02T15:51:23.146Z,30.72
2019-05-02T15:54:07.634Z,31.30
2019-05-02T15:56:32.290Z,28.83
2019-05-02T15:59:06.197Z,28.83
2019-05-02T16:01:52.459Z,28.65
2019-05-02T16:04:25.898Z,25.02
2019-05-02T16:07:00.365Z,29.00
2019-05-02T16:09:28.363Z,29.02
2019-05-02T16:11:58.764Z,26.93
2019-05-02T16:14:32.434Z,29.75
2019-05-02T16:17:03.794Z,30.52
2019-05-02T16:19:36.758Z,28.27
2019-05-02T16:22:13.392Z,28.60
2019-05-02T16:24:48.130Z,27.37
2019-05-02T16:27:16.338Z,27.42
2019-05-02T16:29:47.900Z,24.60
2019-05-02T16:32:37.859Z,20.37
2019-05-02T16:35:13.547Z,17.90
2019-05-02T16:37:42.083Z,14.33
2019-05-02T16:40:13.195Z,15.00
2019-05-02T16:42:43.619Z,11.83
2019-05-02T16:45:14.667Z,8.80
2019-05-02T16:47:45.047Z,11.12
2019-05-02T16:50:18.577Z,12.88
2019-05-02T16:52:47.957Z,9.85
2019-05-02T16:55:21.130Z,10.25
2019-05-02T16:57:51.904Z,9.53
2019-05-02T17:00:25.794Z,9.23
2019-05-02T17:02:56.146Z,8.65
2019-05-02T17:05:26.562Z,8.70
2019-05-02T17:08:19.836Z,6.37
2019-05-02T17:10:56.885Z,9.05
2019-05-02T17:13:27.431Z,6.83
2019-05-02T17:15:58.971Z,7.35
2019-05-02T17:18:29.332Z,8.80
2019-05-02T17:21:01.584Z,9.95
2019-05-02T17:23:32.874Z,10.35
2019-05-02T17:26:03.626Z,12.20
2019-05-02T17:28:38.111Z,10.70
2019-05-02T17:31:10.838Z,11.45
2019-05-02T17:33:38.208Z,10.60
2019-05-02T17:36:08.557Z,10.28
2019-05-02T17:38:39.021Z,10.08
2019-05-02T17:41:11.715Z,13.18
2019-05-02T17:43:42.285Z,12.28
2019-05-02T17:46:18.278Z,12.88
2019-05-02T17:48:47.655Z,11.10
2019-05-02T17:51:35.751Z,10.78
2019-05-02T17:54:05.096Z,10.80
2019-05-02T17:56:35.441Z,10.85
2019-05-02T17:59:05.918Z,12.40
2019-05-02T18:01:41.669Z,13.15
2019-05-02T18:04:16.284Z,12.73
2019-05-02T18:06:46.924Z,13.03
2019-05-02T18:09:16.084Z,15.20
2019-05-02T18:11:46.430Z,15.93
2019-05-02T18:14:21.287Z,18.62
2019-05-02T18:16:51.946Z,17.73
2019-05-02T18:19:24.480Z,17.67
2019-05-02T18:21:53.164Z,20.57
2019-05-02T18:24:23.477Z,20.92
2019-05-02T18:26:53.794Z,19.80
2019-05-02T18:29:24.140Z,21.48
2019-05-02T18:31:54.468Z,21.45
2019-05-02T18:34:25.278Z,20.72
2019-05-02T18:36:57.424Z,25.70
2019-05-02T18:39:27.899Z,25.00
2019-05-02T18:41:58.313Z,27.37
2019-05-02T18:44:28.681Z,30.15
2019-05-02T18:46:59.016Z,37.50
2019-05-02T18:49:29.384Z,40.92
2019-05-02T18:52:01.626Z,38.38
2019-05-02T18:54:33.666Z,37.48
2019-05-02T18:57:03.900Z,41.70
2019-05-02T18:59:34.259Z,38.23
2019-05-02T19:02:04.594Z,41.92
2019-05-02T19:04:39.404Z,36.03
2019-05-02T19:07:12.083Z,41.42
2019-05-02T19:09:50.428Z,35.92
2019-05-02T19:12:19.449Z,35.60
2019-05-02T19:14:43.785Z,38.40
2019-05-02T19:17:14.116Z,39.38
2019-05-02T19:19:44.481Z,37.10
2019-05-02T19:22:17.085Z,37.40
2019-05-02T19:24:47.824Z,36.23
2019-05-02T19:27:37.110Z,37.83
2019-05-02T19:30:08.758Z,38.78
2019-05-02T19:32:39.062Z,38.83
2019-05-02T19:35:09.399Z,36.65
2019-05-02T19:37:44.593Z,38.38
2019-05-02T19:40:14.903Z,35.43
2019-05-02T19:42:45.328Z,33.05
2019-05-02T19:45:16.814Z,33.38
2019-05-02T19:47:49.037Z,31.75
2019-05-02T19:50:43.049Z,31.73
2019-05-02T19:53:15.219Z,28.73
2019-05-02T19:55:42.965Z,28.27
2019-05-02T19:58:13.632Z,28.77
2019-05-02T20:00:46.292Z,28.60
2019-05-02T20:03:21.657Z,32.58
2019-05-02T20:05:48.550Z,27.98
2019-05-02T20:08:21.189Z,32.88
2019-05-02T20:10:56.758Z,29.90
2019-05-02T20:13:28.272Z,28.83
2019-05-02T20:16:07.333Z,28.12
2019-05-02T20:18:45.587Z,27.93
2019-05-02T20:21:23.380Z,27.17
2019-05-02T20:23:47.034Z,23.67
2019-05-02T20:26:17.415Z,23.12
2019-05-02T20:28:47.733Z,23.85
2019-05-02T20:31:18.101Z,24.12
2019-05-02T20:33:48.447Z,21.40
2019-05-02T20:36:18.782Z,23.40
2019-05-02T20:38:49.138Z,21.85
2019-05-02T20:41:19.497Z,19.42
2019-05-02T20:43:51.544Z,19.80
2019-05-02T20:46:22.063Z,19.12
2019-05-02T20:48:52.724Z,18.87
2019-05-02T20:51:23.201Z,17.05
2019-05-02T20:53:53.574Z,18.23
2019-05-02T20:56:24.014Z,18.20
2019-05-02T20:58:54.371Z,18.98
2019-05-02T21:01:24.883Z,16.15
2019-05-02T21:03:55.239Z,16.60
2019-05-02T21:06:59.417Z,15.45
2019-05-02T21:09:52.469Z,14.95
2019-05-02T21:12:23.318Z,13.25
2019-05-02T21:14:53.705Z,15.23
2019-05-02T21:17:24.064Z,13.18
2019-05-02T21:19:54.458Z,13.43
2019-05-02T21:22:29.242Z,12.53
2019-05-02T21:24:59.619Z,14.53
2019-05-02T21:27:29.997Z,13.48
2019-05-02T21:30:00.351Z,13.83
2019-05-02T21:32:32.137Z,13.95
2019-05-02T21:35:02.982Z,14.95
2019-05-02T21:37:33.340Z,15.13
2019-05-02T21:40:03.826Z,13.98
2019-05-02T21:42:34.144Z,12.95
2019-05-02T21:45:04.562Z,16.02
2019-05-02T21:47:35.020Z,14.78
2019-05-02T21:50:12.346Z,14.90
2019-05-02T21:53:01.988Z,14.00
2019-05-02T21:55:45.281Z,14.78
2019-05-02T21:58:15.656Z,12.70
2019-05-02T22:00:55.779Z,13.75
2019-05-02T22:03:26.352Z,12.25
2019-05-02T22:05:56.740Z,12.10
2019-05-02T22:08:27.082Z,11.73
2019-05-02T22:10:57.437Z,11.33
2019-05-02T22:13:27.791Z,10.45
2019-05-02T22:15:58.799Z,12.00
2019-05-02T22:18:29.243Z,10.43
2019-05-02T22:21:01.577Z,10.38
2019-05-02T22:23:33.904Z,10.03
2019-05-02T22:26:03.836Z,10.43
2019-05-02T22:28:34.225Z,10.38
2019-05-02T22:31:04.608Z,10.20
2019-05-02T22:33:34.968Z,10.18
2019-05-02T22:36:05.441Z,10.85
2019-05-02T22:38:53.331Z,9.75
2019-05-02T22:41:23.680Z,9.73
2019-05-02T22:43:54.012Z,10.05
2019-05-02T22:46:43.901Z,10.75
2019-05-02T22:49:15.213Z,9.13
2019-05-02T22:51:46.347Z,9.25
2019-05-02T22:54:26.819Z,9.25
2019-05-02T22:56:48.797Z,8.60
2019-05-02T22:59:19.154Z,8.55
2019-05-02T23:01:49.500Z,10.03
2019-05-02T23:04:23.333Z,9.68
2019-05-02T23:06:52.947Z,8.63
2019-05-02T23:09:23.848Z,9.70
2019-05-02T23:11:54.190Z,9.43
2019-05-02T23:14:24.582Z,8.78
2019-05-02T23:16:54.962Z,9.45
2019-05-02T23:19:25.295Z,9.30
2019-05-02T23:21:55.847Z,9.93
2019-05-02T23:24:38.707Z,8.33
2019-05-02T23:27:17.827Z,6.80
2019-05-02T23:29:48.223Z,6.45
2019-05-02T23:32:18.563Z,6.25
2019-05-02T23:34:48.939Z,5.60
2019-05-02T23:37:19.348Z,6.42
2019-05-02T23:39:49.815Z,5.65
2019-05-02T23:42:21.871Z,6.35
2019-05-02T23:44:52.249Z,5.58
2019-05-02T23:47:22.616Z,5.28
2019-05-02T23:49:52.979Z,5.78
2019-05-02T23:52:23.369Z,4.33
2019-05-02T23:54:53.740Z,5.08
2019-05-02T23:57:24.089Z,4.97
2019-05-02T23:59:54.474Z,5.28
